Terminal Aerodrome Forecast
Issued by NWS

Home | Current Version | Previous Version | Graphics & Text | Print | Product List | Glossary On
Versions: 1 2 3 4 5 6 7 8 9 10 11 12 13 14 15 16 17 18
000
FTUS43 KOAX 290520
TAFCDR
TAF
KCDR 290520Z 2906/3006 VRB05KT 6SM FU SKC
     FM291500 22007KT P6SM SKC
     FM291800 21012G18KT P6SM SKC
     FM300300 17013G18KT P6SM SKC=

USA.gov is the U.S. government's official web portal to all federal, state and local government web resources and services.